sensor_id;sensor_type;location;lat;lon;timestamp;pressure;altitude;pressure_sealevel;temperature;humidity
64368;BME280;50692;53.314;-6.300;2023-03-25T00:01:32;99003.47;;;8.68;88.60
64368;BME280;50692;53.314;-6.300;2023-03-25T00:04:17;99013.88;;;8.69;88.71
64368;BME280;50692;53.314;-6.300;2023-03-25T00:07:01;99016.00;;;8.64;89.37
64368;BME280;50692;53.314;-6.300;2023-03-25T00:09:45;99016.84;;;8.64;89.42
64368;BME280;50692;53.314;-6.300;2023-03-25T00:12:30;99022.94;;;8.65;90.04
64368;BME280;50692;53.314;-6.300;2023-03-25T00:15:14;99026.41;;;8.65;91.07
64368;BME280;50692;53.314;-6.300;2023-03-25T00:18:00;99040.34;;;8.68;91.73
64368;BME280;50692;53.314;-6.300;2023-03-25T00:20:44;99045.38;;;8.71;92.14
64368;BME280;50692;53.314;-6.300;2023-03-25T00:23:20;99044.22;;;8.75;92.21
64368;BME280;50692;53.314;-6.300;2023-03-25T00:26:04;99042.19;;;8.78;92.90
64368;BME280;50692;53.314;-6.300;2023-03-25T00:28:48;99036.19;;;8.76;93.96
64368;BME280;50692;53.314;-6.300;2023-03-25T00:31:33;99053.56;;;8.79;94.74
64368;BME280;50692;53.314;-6.300;2023-03-25T00:34:18;99054.53;;;8.78;94.87
64368;BME280;50692;53.314;-6.300;2023-03-25T00:37:03;99048.66;;;8.74;94.96
64368;BME280;50692;53.314;-6.300;2023-03-25T00:39:47;99059.19;;;8.74;94.66
64368;BME280;50692;53.314;-6.300;2023-03-25T00:42:31;99066.22;;;8.74;94.43
64368;BME280;50692;53.314;-6.300;2023-03-25T00:45:02;99074.13;;;8.74;94.11
64368;BME280;50692;53.314;-6.300;2023-03-25T00:47:47;99081.41;;;8.70;94.00
64368;BME280;50692;53.314;-6.300;2023-03-25T00:50:31;99009.63;;;8.30;93.66
64368;BME280;50692;53.314;-6.300;2023-03-25T00:53:15;99069.84;;;8.60;93.47
64368;BME280;50692;53.314;-6.300;2023-03-25T00:55:59;99083.31;;;8.68;93.24
64368;BME280;50692;53.314;-6.300;2023-03-25T00:58:44;99095.44;;;8.71;93.01
64368;BME280;50692;53.314;-6.300;2023-03-25T01:01:28;99092.06;;;8.69;93.97
64368;BME280;50692;53.314;-6.300;2023-03-25T01:04:12;99104.25;;;8.70;94.37
64368;BME280;50692;53.314;-6.300;2023-03-25T01:06:56;99103.63;;;8.66;95.09
64368;BME280;50692;53.314;-6.300;2023-03-25T01:09:41;99104.09;;;8.60;95.30
64368;BME280;50692;53.314;-6.300;2023-03-25T01:12:26;99098.94;;;8.46;94.91
64368;BME280;50692;53.314;-6.300;2023-03-25T01:15:11;99103.56;;;8.55;94.57
64368;BME280;50692;53.314;-6.300;2023-03-25T01:17:55;99107.56;;;8.48;94.02
64368;BME280;50692;53.314;-6.300;2023-03-25T01:20:39;99091.13;;;8.44;93.63
64368;BME280;50692;53.314;-6.300;2023-03-25T01:23:23;99119.34;;;8.55;93.10
64368;BME280;50692;53.314;-6.300;2023-03-25T01:26:07;99133.81;;;8.49;92.53
64368;BME280;50692;53.314;-6.300;2023-03-25T01:28:51;99118.22;;;8.46;91.80
64368;BME280;50692;53.314;-6.300;2023-03-25T01:31:36;99124.06;;;8.37;91.36
64368;BME280;50692;53.314;-6.300;2023-03-25T01:34:21;99118.94;;;8.35;91.15
64368;BME280;50692;53.314;-6.300;2023-03-25T01:37:05;99130.38;;;8.34;91.35
64368;BME280;50692;53.314;-6.300;2023-03-25T01:39:50;99128.28;;;8.27;91.78
64368;BME280;50692;53.314;-6.300;2023-03-25T01:42:34;99135.47;;;8.25;92.37
64368;BME280;50692;53.314;-6.300;2023-03-25T01:45:22;99117.03;;;8.12;93.01
64368;BME280;50692;53.314;-6.300;2023-03-25T01:48:19;99140.09;;;8.21;93.89
64368;BME280;50692;53.314;-6.300;2023-03-25T01:51:09;99145.44;;;8.20;94.28
64368;BME280;50692;53.314;-6.300;2023-03-25T01:53:56;99136.59;;;8.08;95.13
64368;BME280;50692;53.314;-6.300;2023-03-25T01:56:40;99131.47;;;8.06;95.17
64368;BME280;50692;53.314;-6.300;2023-03-25T01:59:26;99155.44;;;8.14;95.50
64368;BME280;50692;53.314;-6.300;2023-03-25T02:02:12;99153.88;;;8.12;96.23
64368;BME280;50692;53.314;-6.300;2023-03-25T02:05:16;99169.00;;;8.08;96.22
64368;BME280;50692;53.314;-6.300;2023-03-25T02:08:03;99150.47;;;7.97;96.32
64368;BME280;50692;53.314;-6.300;2023-03-25T02:10:48;99172.50;;;8.09;96.65
64368;BME280;50692;53.314;-6.300;2023-03-25T02:13:34;99175.97;;;8.09;96.72
64368;BME280;50692;53.314;-6.300;2023-03-25T02:23:21;99183.44;;;8.15;96.35
64368;BME280;50692;53.314;-6.300;2023-03-25T02:40:48;99220.28;;;8.03;96.34
64368;BME280;50692;53.314;-6.300;2023-03-25T02:46:38;99241.09;;;7.93;96.25
64368;BME280;50692;53.314;-6.300;2023-03-25T02:49:29;99249.16;;;7.90;96.41
64368;BME280;50692;53.314;-6.300;2023-03-25T02:52:36;99263.28;;;7.89;96.10
64368;BME280;50692;53.314;-6.300;2023-03-25T02:55:21;99256.31;;;7.88;96.05
64368;BME280;50692;53.314;-6.300;2023-03-25T02:58:10;99263.59;;;7.84;96.20
64368;BME280;50692;53.314;-6.300;2023-03-25T03:00:56;99260.00;;;7.85;96.45
64368;BME280;50692;53.314;-6.300;2023-03-25T03:03:42;99281.03;;;7.85;96.29
64368;BME280;50692;53.314;-6.300;2023-03-25T03:06:27;99257.22;;;7.74;96.72
64368;BME280;50692;53.314;-6.300;2023-03-25T03:12:11;99290.28;;;7.78;97.17
64368;BME280;50692;53.314;-6.300;2023-03-25T03:15:09;99306.91;;;7.79;97.10
64368;BME280;50692;53.314;-6.300;2023-03-25T03:18:15;99306.25;;;7.75;97.24
64368;BME280;50692;53.314;-6.300;2023-03-25T03:21:15;99299.78;;;7.66;97.31
64368;BME280;50692;53.314;-6.300;2023-03-25T03:24:20;99313.59;;;7.70;97.27
64368;BME280;50692;53.314;-6.300;2023-03-25T03:27:18;99310.97;;;7.70;97.30
64368;BME280;50692;53.314;-6.300;2023-03-25T03:30:25;99318.63;;;7.73;97.13
64368;BME280;50692;53.314;-6.300;2023-03-25T03:33:20;99324.84;;;7.72;96.94
64368;BME280;50692;53.314;-6.300;2023-03-25T03:36:16;99324.97;;;7.71;96.99
64368;BME280;50692;53.314;-6.300;2023-03-25T03:39:07;99332.09;;;7.68;97.05
64368;BME280;50692;53.314;-6.300;2023-03-25T03:41:59;99347.03;;;7.68;97.17
64368;BME280;50692;53.314;-6.300;2023-03-25T03:44:49;99349.66;;;7.68;97.24
64368;BME280;50692;53.314;-6.300;2023-03-25T03:47:42;99355.09;;;7.65;97.66
64368;BME280;50692;53.314;-6.300;2023-03-25T03:50:33;99358.03;;;7.60;97.77
64368;BME280;50692;53.314;-6.300;2023-03-25T03:56:09;99376.50;;;7.59;98.32
64368;BME280;50692;53.314;-6.300;2023-03-25T03:58:57;99381.69;;;7.60;98.09
64368;BME280;50692;53.314;-6.300;2023-03-25T04:01:39;99373.16;;;7.57;97.87
64368;BME280;50692;53.314;-6.300;2023-03-25T04:04:29;99388.63;;;7.61;97.67
64368;BME280;50692;53.314;-6.300;2023-03-25T04:07:17;99391.25;;;7.61;97.43
64368;BME280;50692;53.314;-6.300;2023-03-25T04:10:08;99386.19;;;7.58;97.06
64368;BME280;50692;53.314;-6.300;2023-03-25T04:12:59;99398.59;;;7.56;96.80
64368;BME280;50692;53.314;-6.300;2023-03-25T04:15:47;99390.91;;;7.53;96.43
64368;BME280;50692;53.314;-6.300;2023-03-25T04:18:31;99406.56;;;7.55;95.86
64368;BME280;50692;53.314;-6.300;2023-03-25T04:21:16;99405.66;;;7.56;95.51
64368;BME280;50692;53.314;-6.300;2023-03-25T04:24:00;99417.09;;;7.55;95.43
64368;BME280;50692;53.314;-6.300;2023-03-25T04:26:45;99414.63;;;7.52;95.33
64368;BME280;50692;53.314;-6.300;2023-03-25T04:29:30;99399.34;;;7.44;95.24
64368;BME280;50692;53.314;-6.300;2023-03-25T04:32:17;99414.56;;;7.53;94.99
64368;BME280;50692;53.314;-6.300;2023-03-25T04:35:01;99417.56;;;7.47;95.33
64368;BME280;50692;53.314;-6.300;2023-03-25T04:37:46;99419.69;;;7.40;95.35
64368;BME280;50692;53.314;-6.300;2023-03-25T04:40:36;99443.84;;;7.47;95.26
64368;BME280;50692;53.314;-6.300;2023-03-25T04:43:23;99446.56;;;7.45;95.64
64368;BME280;50692;53.314;-6.300;2023-03-25T04:46:11;99455.50;;;7.43;95.77
64368;BME280;50692;53.314;-6.300;2023-03-25T04:48:56;99467.44;;;7.49;95.98
64368;BME280;50692;53.314;-6.300;2023-03-25T04:51:40;99469.00;;;7.51;96.15
64368;BME280;50692;53.314;-6.300;2023-03-25T04:54:24;99468.75;;;7.56;95.94
64368;BME280;50692;53.314;-6.300;2023-03-25T04:57:08;99478.22;;;7.58;96.32
64368;BME280;50692;53.314;-6.300;2023-03-25T04:59:52;99477.97;;;7.63;96.44
64368;BME280;50692;53.314;-6.300;2023-03-25T05:02:36;99491.56;;;7.69;96.74
64368;BME280;50692;53.314;-6.300;2023-03-25T05:05:23;99484.44;;;7.72;96.93
64368;BME280;50692;53.314;-6.300;2023-03-25T05:08:07;99471.09;;;7.75;96.87
64368;BME280;50692;53.314;-6.300;2023-03-25T05:10:52;99483.50;;;7.73;97.56
64368;BME280;50692;53.314;-6.300;2023-03-25T05:13:38;99482.19;;;7.80;97.35
64368;BME280;50692;53.314;-6.300;2023-03-25T05:16:22;99491.00;;;7.79;97.54
64368;BME280;50692;53.314;-6.300;2023-03-25T05:19:06;99491.13;;;7.77;97.67
64368;BME280;50692;53.314;-6.300;2023-03-25T05:21:50;99492.50;;;7.83;98.00
64368;BME280;50692;53.314;-6.300;2023-03-25T05:24:35;99499.56;;;7.82;98.45
64368;BME280;50692;53.314;-6.300;2023-03-25T05:27:19;99508.13;;;7.86;98.58
64368;BME280;50692;53.314;-6.300;2023-03-25T05:30:06;99511.47;;;7.88;98.61
64368;BME280;50692;53.314;-6.300;2023-03-25T05:32:50;99512.34;;;7.88;98.85
64368;BME280;50692;53.314;-6.300;2023-03-25T05:35:37;99519.19;;;7.91;98.85
64368;BME280;50692;53.314;-6.300;2023-03-25T05:38:21;99521.75;;;7.92;98.72
64368;BME280;50692;53.314;-6.300;2023-03-25T05:41:05;99527.94;;;7.91;98.72
64368;BME280;50692;53.314;-6.300;2023-03-25T05:43:53;99530.47;;;7.93;98.54
64368;BME280;50692;53.314;-6.300;2023-03-25T05:46:38;99544.59;;;7.92;98.68
64368;BME280;50692;53.314;-6.300;2023-03-25T05:49:21;99551.53;;;7.93;98.72
64368;BME280;50692;53.314;-6.300;2023-03-25T05:52:06;99550.75;;;7.91;98.90
64368;BME280;50692;53.314;-6.300;2023-03-25T05:54:51;99551.72;;;7.90;98.75
64368;BME280;50692;53.314;-6.300;2023-03-25T05:57:35;99564.19;;;7.86;98.97
64368;BME280;50692;53.314;-6.300;2023-03-25T06:00:19;99556.50;;;7.83;98.98
64368;BME280;50692;53.314;-6.300;2023-03-25T06:03:07;99573.88;;;7.86;99.16
64368;BME280;50692;53.314;-6.300;2023-03-25T06:05:51;99573.88;;;7.86;99.26
64368;BME280;50692;53.314;-6.300;2023-03-25T06:08:36;99575.69;;;7.85;99.22
64368;BME280;50692;53.314;-6.300;2023-03-25T06:11:20;99573.78;;;7.87;99.41
64368;BME280;50692;53.314;-6.300;2023-03-25T06:14:05;99592.13;;;7.89;99.54
64368;BME280;50692;53.314;-6.300;2023-03-25T06:16:50;99578.19;;;7.87;99.60
64368;BME280;50692;53.314;-6.300;2023-03-25T06:19:34;99590.06;;;7.94;99.70
64368;BME280;50692;53.314;-6.300;2023-03-25T06:22:22;99587.06;;;8.00;99.52
64368;BME280;50692;53.314;-6.300;2023-03-25T06:25:06;99561.56;;;7.86;99.60
64368;BME280;50692;53.314;-6.300;2023-03-25T06:27:50;99596.84;;;8.12;99.18
64368;BME280;50692;53.314;-6.300;2023-03-25T06:30:35;99595.69;;;8.16;98.89
64368;BME280;50692;53.314;-6.300;2023-03-25T06:33:19;99600.97;;;8.16;98.51
64368;BME280;50692;53.314;-6.300;2023-03-25T06:36:04;99607.00;;;8.18;98.60
64368;BME280;50692;53.314;-6.300;2023-03-25T06:38:49;99617.41;;;8.20;98.37
64368;BME280;50692;53.314;-6.300;2023-03-25T06:41:33;99625.25;;;8.22;98.27
64368;BME280;50692;53.314;-6.300;2023-03-25T06:44:20;99626.56;;;8.29;98.06
64368;BME280;50692;53.314;-6.300;2023-03-25T06:47:04;99628.06;;;8.33;97.55
64368;BME280;50692;53.314;-6.300;2023-03-25T06:49:49;99638.94;;;8.43;97.24
64368;BME280;50692;53.314;-6.300;2023-03-25T06:52:34;99644.84;;;8.46;96.85
64368;BME280;50692;53.314;-6.300;2023-03-25T06:55:19;99650.13;;;8.46;96.60
64368;BME280;50692;53.314;-6.300;2023-03-25T06:58:03;99660.34;;;8.51;96.62
64368;BME280;50692;53.314;-6.300;2023-03-25T07:00:52;99668.75;;;8.57;96.64
64368;BME280;50692;53.314;-6.300;2023-03-25T07:03:36;99681.44;;;8.65;96.46
64368;BME280;50692;53.314;-6.300;2023-03-25T07:06:22;99681.63;;;8.62;96.24
64368;BME280;50692;53.314;-6.300;2023-03-25T07:09:07;99683.03;;;8.68;96.22
64368;BME280;50692;53.314;-6.300;2023-03-25T07:11:51;99701.97;;;8.74;96.20
64368;BME280;50692;53.314;-6.300;2023-03-25T07:14:35;99696.47;;;8.77;95.77
64368;BME280;50692;53.314;-6.300;2023-03-25T07:17:19;99702.63;;;8.78;95.61
64368;BME280;50692;53.314;-6.300;2023-03-25T07:20:04;99694.59;;;8.79;95.52
64368;BME280;50692;53.314;-6.300;2023-03-25T07:22:48;99677.13;;;8.64;95.31
64368;BME280;50692;53.314;-6.300;2023-03-25T07:25:32;99702.78;;;8.75;95.38
64368;BME280;50692;53.314;-6.300;2023-03-25T07:28:17;99699.59;;;8.70;95.08
64368;BME280;50692;53.314;-6.300;2023-03-25T07:31:08;99691.31;;;8.76;95.47
64368;BME280;50692;53.314;-6.300;2023-03-25T07:33:52;99700.53;;;8.97;95.23
64368;BME280;50692;53.314;-6.300;2023-03-25T07:36:36;99710.84;;;9.15;94.78
64368;BME280;50692;53.314;-6.300;2023-03-25T07:39:20;99710.72;;;9.30;93.61
64368;BME280;50692;53.314;-6.300;2023-03-25T07:42:08;99716.81;;;9.45;92.77
64368;BME280;50692;53.314;-6.300;2023-03-25T07:44:53;99722.34;;;9.55;91.30
64368;BME280;50692;53.314;-6.300;2023-03-25T07:47:37;99732.81;;;9.56;90.50
64368;BME280;50692;53.314;-6.300;2023-03-25T07:50:22;99712.78;;;9.40;89.91
64368;BME280;50692;53.314;-6.300;2023-03-25T07:53:06;99740.69;;;9.71;89.87
64368;BME280;50692;53.314;-6.300;2023-03-25T07:55:34;99743.41;;;9.69;89.48
64368;BME280;50692;53.314;-6.300;2023-03-25T07:58:18;99737.22;;;9.83;88.60
64368;BME280;50692;53.314;-6.300;2023-03-25T08:01:03;99744.44;;;9.94;88.08
64368;BME280;50692;53.314;-6.300;2023-03-25T08:03:48;99751.47;;;10.07;87.81
64368;BME280;50692;53.314;-6.300;2023-03-25T08:06:32;99750.25;;;10.26;86.55
64368;BME280;50692;53.314;-6.300;2023-03-25T08:09:16;99753.03;;;10.37;85.52
64368;BME280;50692;53.314;-6.300;2023-03-25T08:12:00;99747.88;;;10.48;84.90
64368;BME280;50692;53.314;-6.300;2023-03-25T08:14:44;99752.75;;;10.54;84.21
64368;BME280;50692;53.314;-6.300;2023-03-25T08:17:28;99756.75;;;10.47;84.13
64368;BME280;50692;53.314;-6.300;2023-03-25T08:20:13;99772.47;;;10.49;84.08
64368;BME280;50692;53.314;-6.300;2023-03-25T08:22:57;99768.59;;;10.54;83.55
64368;BME280;50692;53.314;-6.300;2023-03-25T08:25:42;99773.47;;;10.61;83.50
64368;BME280;50692;53.314;-6.300;2023-03-25T08:28:25;99783.09;;;10.87;82.97
64368;BME280;50692;53.314;-6.300;2023-03-25T08:31:10;99788.59;;;10.97;81.85
64368;BME280;50692;53.314;-6.300;2023-03-25T08:33:54;99793.44;;;11.03;80.69
64368;BME280;50692;53.314;-6.300;2023-03-25T08:36:39;99797.13;;;11.13;80.38
64368;BME280;50692;53.314;-6.300;2023-03-25T08:39:23;99813.13;;;11.12;79.71
64368;BME280;50692;53.314;-6.300;2023-03-25T08:42:12;99803.91;;;11.04;79.42
64368;BME280;50692;53.314;-6.300;2023-03-25T08:44:57;99806.25;;;10.96;79.86
64368;BME280;50692;53.314;-6.300;2023-03-25T08:47:42;99814.81;;;11.13;80.08
64368;BME280;50692;53.314;-6.300;2023-03-25T08:50:27;99802.84;;;11.33;78.80
64368;BME280;50692;53.314;-6.300;2023-03-25T08:53:11;99827.31;;;11.60;77.79
64368;BME280;50692;53.314;-6.300;2023-03-25T08:55:56;99832.44;;;11.50;76.79
64368;BME280;50692;53.314;-6.300;2023-03-25T08:58:41;99836.34;;;11.45;77.28
64368;BME280;50692;53.314;-6.300;2023-03-25T09:01:25;99841.75;;;11.56;77.05
64368;BME280;50692;53.314;-6.300;2023-03-25T09:04:10;99844.50;;;11.55;75.95
64368;BME280;50692;53.314;-6.300;2023-03-25T09:06:54;99849.53;;;11.83;75.97
64368;BME280;50692;53.314;-6.300;2023-03-25T09:09:40;99860.81;;;12.11;74.02
64368;BME280;50692;53.314;-6.300;2023-03-25T09:12:24;99861.88;;;12.32;72.49
64368;BME280;50692;53.314;-6.300;2023-03-25T09:15:09;99872.63;;;12.42;72.03
64368;BME280;50692;53.314;-6.300;2023-03-25T09:17:54;99880.53;;;12.31;71.88
64368;BME280;50692;53.314;-6.300;2023-03-25T09:20:38;99874.22;;;11.96;72.48
64368;BME280;50692;53.314;-6.300;2023-03-25T09:23:24;99881.00;;;11.75;73.96
64368;BME280;50692;53.314;-6.300;2023-03-25T09:26:08;99882.06;;;11.60;74.77
64368;BME280;50692;53.314;-6.300;2023-03-25T09:28:52;99884.41;;;11.51;75.35
64368;BME280;50692;53.314;-6.300;2023-03-25T09:31:38;99885.78;;;11.32;75.57
64368;BME280;50692;53.314;-6.300;2023-03-25T09:34:23;99886.53;;;11.21;76.12
64368;BME280;50692;53.314;-6.300;2023-03-25T09:37:07;99887.78;;;11.28;75.90
64368;BME280;50692;53.314;-6.300;2023-03-25T09:39:51;99871.94;;;11.28;75.25
64368;BME280;50692;53.314;-6.300;2023-03-25T09:43:02;99886.75;;;11.31;74.74
64368;BME280;50692;53.314;-6.300;2023-03-25T09:45:51;99889.19;;;11.34;74.19
64368;BME280;50692;53.314;-6.300;2023-03-25T09:48:39;99889.25;;;11.83;73.25
64368;BME280;50692;53.314;-6.300;2023-03-25T09:51:27;99886.50;;;12.45;70.07
64368;BME280;50692;53.314;-6.300;2023-03-25T09:57:07;99891.16;;;13.70;66.21
64368;BME280;50692;53.314;-6.300;2023-03-25T09:59:55;99890.66;;;13.99;64.04
64368;BME280;50692;53.314;-6.300;2023-03-25T10:02:52;99894.81;;;14.24;60.82
64368;BME280;50692;53.314;-6.300;2023-03-25T10:05:58;99896.06;;;14.08;60.13
64368;BME280;50692;53.314;-6.300;2023-03-25T10:11:57;99897.28;;;14.04;60.39
64368;BME280;50692;53.314;-6.300;2023-03-25T10:23:42;99914.00;;;14.38;56.03
64368;BME280;50692;53.314;-6.300;2023-03-25T10:26:39;99910.38;;;14.51;56.67
64368;BME280;50692;53.314;-6.300;2023-03-25T10:32:27;99904.34;;;15.44;54.35
64368;BME280;50692;53.314;-6.300;2023-03-25T10:35:17;99925.16;;;15.80;53.00
64368;BME280;50692;53.314;-6.300;2023-03-25T10:38:06;99921.91;;;16.37;49.54
64368;BME280;50692;53.314;-6.300;2023-03-25T10:41:15;99939.94;;;16.64;48.92
64368;BME280;50692;53.314;-6.300;2023-03-25T10:44:08;99949.81;;;16.83;48.96
64368;BME280;50692;53.314;-6.300;2023-03-25T10:47:00;99936.47;;;16.83;47.57
64368;BME280;50692;53.314;-6.300;2023-03-25T10:49:48;99955.63;;;16.47;47.86
64368;BME280;50692;53.314;-6.300;2023-03-25T10:52:34;99951.59;;;15.72;50.20
64368;BME280;50692;53.314;-6.300;2023-03-25T10:55:27;99954.22;;;15.42;51.96
64368;BME280;50692;53.314;-6.300;2023-03-25T10:58:15;99946.41;;;15.50;51.38
64368;BME280;50692;53.314;-6.300;2023-03-25T11:01:09;99941.81;;;15.82;51.54
64368;BME280;50692;53.314;-6.300;2023-03-25T11:03:56;99945.91;;;15.87;50.84
64368;BME280;50692;53.314;-6.300;2023-03-25T11:06:43;99944.00;;;15.47;51.12
64368;BME280;50692;53.314;-6.300;2023-03-25T11:09:30;99951.09;;;15.16;52.36
64368;BME280;50692;53.314;-6.300;2023-03-25T11:12:17;99942.09;;;14.96;53.29
64368;BME280;50692;53.314;-6.300;2023-03-25T11:15:04;99950.66;;;14.78;54.00
64368;BME280;50692;53.314;-6.300;2023-03-25T11:18:43;99949.03;;;14.44;55.13
64368;BME280;50692;53.314;-6.300;2023-03-25T11:21:05;99953.16;;;14.48;56.62
64368;BME280;50692;53.314;-6.300;2023-03-25T11:23:50;99949.84;;;14.67;56.84
64368;BME280;50692;53.314;-6.300;2023-03-25T11:26:37;99961.22;;;14.57;58.54
64368;BME280;50692;53.314;-6.300;2023-03-25T11:29:24;99962.38;;;14.10;62.35
64368;BME280;50692;53.314;-6.300;2023-03-25T11:32:13;99965.03;;;13.76;66.88
64368;BME280;50692;53.314;-6.300;2023-03-25T11:35:01;99957.03;;;13.54;69.09
64368;BME280;50692;53.314;-6.300;2023-03-25T11:37:58;99964.81;;;13.79;71.28
64368;BME280;50692;53.314;-6.300;2023-03-25T11:40:53;99957.28;;;14.18;66.60
64368;BME280;50692;53.314;-6.300;2023-03-25T11:43:38;99946.84;;;14.92;63.20
64368;BME280;50692;53.314;-6.300;2023-03-25T11:46:23;99957.03;;;15.92;58.61
64368;BME280;50692;53.314;-6.300;2023-03-25T11:49:15;99954.78;;;15.97;55.46
64368;BME280;50692;53.314;-6.300;2023-03-25T11:52:23;99958.78;;;15.81;55.69
64368;BME280;50692;53.314;-6.300;2023-03-25T11:55:43;99954.03;;;16.16;55.66
64368;BME280;50692;53.314;-6.300;2023-03-25T11:58:29;99960.06;;;16.97;52.89
64368;BME280;50692;53.314;-6.300;2023-03-25T12:01:25;99959.25;;;17.72;50.31
64368;BME280;50692;53.314;-6.300;2023-03-25T12:04:17;99941.28;;;18.30;47.69
64368;BME280;50692;53.314;-6.300;2023-03-25T12:07:07;99935.69;;;18.68;45.34
64368;BME280;50692;53.314;-6.300;2023-03-25T12:09:57;99944.09;;;18.10;47.03
64368;BME280;50692;53.314;-6.300;2023-03-25T12:15:36;99939.78;;;17.43;48.73
64368;BME280;50692;53.314;-6.300;2023-03-25T12:18:45;99941.69;;;18.35;47.53
64368;BME280;50692;53.314;-6.300;2023-03-25T12:22:12;99931.75;;;19.60;45.22
64368;BME280;50692;53.314;-6.300;2023-03-25T12:37:39;99924.84;;;17.97;44.76
64368;BME280;50692;53.314;-6.300;2023-03-25T12:44:03;99944.72;;;16.60;51.23
64368;BME280;50692;53.314;-6.300;2023-03-25T12:47:13;99949.56;;;15.86;57.92
64368;BME280;50692;53.314;-6.300;2023-03-25T12:50:22;99939.47;;;15.38;61.04
64368;BME280;50692;53.314;-6.300;2023-03-25T12:53:27;99944.88;;;15.26;62.68
64368;BME280;50692;53.314;-6.300;2023-03-25T12:56:47;99933.03;;;15.40;63.46
64368;BME280;50692;53.314;-6.300;2023-03-25T13:05:19;99938.22;;;17.40;58.78
64368;BME280;50692;53.314;-6.300;2023-03-25T13:08:44;99941.38;;;17.07;55.74
64368;BME280;50692;53.314;-6.300;2023-03-25T13:11:44;99936.41;;;16.53;55.01
64368;BME280;50692;53.314;-6.300;2023-03-25T13:14:56;99944.94;;;16.28;55.65
64368;BME280;50692;53.314;-6.300;2023-03-25T13:17:54;99948.78;;;16.64;54.17
64368;BME280;50692;53.314;-6.300;2023-03-25T13:20:44;99930.13;;;17.22;50.88
64368;BME280;50692;53.314;-6.300;2023-03-25T13:23:33;99933.28;;;18.02;49.13
64368;BME280;50692;53.314;-6.300;2023-03-25T13:26:21;99934.84;;;18.22;46.22
64368;BME280;50692;53.314;-6.300;2023-03-25T13:29:24;99929.97;;;18.18;46.02
64368;BME280;50692;53.314;-6.300;2023-03-25T13:32:17;99923.06;;;18.15;46.40
64368;BME280;50692;53.314;-6.300;2023-03-25T13:35:12;99923.13;;;18.06;47.87
64368;BME280;50692;53.314;-6.300;2023-03-25T13:38:00;99925.22;;;17.74;45.91
64368;BME280;50692;53.314;-6.300;2023-03-25T13:44:07;99912.59;;;17.57;47.72
64368;BME280;50692;53.314;-6.300;2023-03-25T13:47:07;99913.25;;;18.34;47.36
64368;BME280;50692;53.314;-6.300;2023-03-25T13:50:01;99907.47;;;18.56;43.03
64368;BME280;50692;53.314;-6.300;2023-03-25T13:52:51;99908.44;;;18.55;43.74
64368;BME280;50692;53.314;-6.300;2023-03-25T13:55:40;99891.41;;;19.36;43.61
64368;BME280;50692;53.314;-6.300;2023-03-25T14:01:38;99900.16;;;20.57;39.33
64368;BME280;50692;53.314;-6.300;2023-03-25T14:04:46;99897.00;;;21.11;39.36
64368;BME280;50692;53.314;-6.300;2023-03-25T14:12:29;99884.63;;;19.84;38.64
64368;BME280;50692;53.314;-6.300;2023-03-25T14:15:02;99878.00;;;19.36;39.13
64368;BME280;50692;53.314;-6.300;2023-03-25T14:17:31;99838.81;;;18.47;40.23
64368;BME280;50692;53.314;-6.300;2023-03-25T14:20:00;99881.31;;;18.05;41.42
64368;BME280;50692;53.314;-6.300;2023-03-25T14:22:30;99887.06;;;17.45;43.09
64368;BME280;50692;53.314;-6.300;2023-03-25T14:24:59;99897.13;;;17.14;44.83
64368;BME280;50692;53.314;-6.300;2023-03-25T14:27:47;99914.00;;;16.85;46.72
64368;BME280;50692;53.314;-6.300;2023-03-25T14:30:33;99909.56;;;16.26;48.99
64368;BME280;50692;53.314;-6.300;2023-03-25T14:33:17;99915.47;;;15.58;53.20
64368;BME280;50692;53.314;-6.300;2023-03-25T14:36:01;99926.31;;;15.15;57.88
64368;BME280;50692;53.314;-6.300;2023-03-25T14:38:50;99926.59;;;14.80;61.91
64368;BME280;50692;53.314;-6.300;2023-03-25T14:41:58;99928.47;;;14.46;64.17
64368;BME280;50692;53.314;-6.300;2023-03-25T14:44:44;99927.47;;;14.26;64.93
64368;BME280;50692;53.314;-6.300;2023-03-25T14:47:50;99921.88;;;14.18;67.46
64368;BME280;50692;53.314;-6.300;2023-03-25T14:50:35;99930.09;;;14.14;66.58
64368;BME280;50692;53.314;-6.300;2023-03-25T14:53:19;99921.69;;;13.98;67.34
64368;BME280;50692;53.314;-6.300;2023-03-25T14:56:06;99925.31;;;13.75;67.17
64368;BME280;50692;53.314;-6.300;2023-03-25T14:58:56;99913.47;;;13.67;67.23
64368;BME280;50692;53.314;-6.300;2023-03-25T15:01:43;99918.41;;;13.61;67.63
64368;BME280;50692;53.314;-6.300;2023-03-25T15:04:38;99929.78;;;13.63;68.96
64368;BME280;50692;53.314;-6.300;2023-03-25T15:10:33;99902.03;;;14.44;67.27
64368;BME280;50692;53.314;-6.300;2023-03-25T15:13:25;99892.97;;;14.79;67.65
64368;BME280;50692;53.314;-6.300;2023-03-25T15:16:21;99884.81;;;15.13;66.18
64368;BME280;50692;53.314;-6.300;2023-03-25T15:19:12;99883.38;;;15.60;65.15
64368;BME280;50692;53.314;-6.300;2023-03-25T15:24:43;99891.44;;;16.10;61.54
64368;BME280;50692;53.314;-6.300;2023-03-25T15:27:41;99884.09;;;15.93;61.94
64368;BME280;50692;53.314;-6.300;2023-03-25T15:39:36;99897.47;;;15.72;62.67
64368;BME280;50692;53.314;-6.300;2023-03-25T15:56:36;99860.47;;;14.96;60.91
64368;BME280;50692;53.314;-6.300;2023-03-25T16:01:46;99853.78;;;14.81;60.55
64368;BME280;50692;53.314;-6.300;2023-03-25T16:04:16;99856.31;;;14.82;61.28
64368;BME280;50692;53.314;-6.300;2023-03-25T16:06:45;99849.78;;;14.86;60.60
64368;BME280;50692;53.314;-6.300;2023-03-25T16:09:24;99843.00;;;15.03;59.89
64368;BME280;50692;53.314;-6.300;2023-03-25T16:11:51;99848.00;;;15.48;58.25
64368;BME280;50692;53.314;-6.300;2023-03-25T16:14:19;99838.66;;;15.94;57.70
64368;BME280;50692;53.314;-6.300;2023-03-25T16:17:06;99783.97;;;16.10;56.24
64368;BME280;50692;53.314;-6.300;2023-03-25T16:19:53;99838.66;;;17.01;54.84
64368;BME280;50692;53.314;-6.300;2023-03-25T16:22:31;99833.03;;;17.51;53.82
64368;BME280;50692;53.314;-6.300;2023-03-25T16:25:25;99827.75;;;17.96;51.82
64368;BME280;50692;53.314;-6.300;2023-03-25T16:31:32;99816.41;;;19.44;48.68
64368;BME280;50692;53.314;-6.300;2023-03-25T16:34:18;99805.06;;;19.84;46.66
64368;BME280;50692;53.314;-6.300;2023-03-25T16:37:03;99805.75;;;19.52;45.71
64368;BME280;50692;53.314;-6.300;2023-03-25T16:39:53;99804.31;;;18.80;46.67
64368;BME280;50692;53.314;-6.300;2023-03-25T16:42:38;99809.13;;;18.05;48.12